sensor_id;sensor_type;location;lat;lon;timestamp;P1;durP1;ratioP1;P2;durP2;ratioP2
27533;SDS011;14973;51.460;7.008;2023-10-09T00:01:39;51.08;;;20.83;;
27533;SDS011;14973;51.460;7.008;2023-10-09T00:04:09;51.47;;;20.27;;
27533;SDS011;14973;51.460;7.008;2023-10-09T00:06:41;45.38;;;20.20;;
27533;SDS011;14973;51.460;7.008;2023-10-09T00:09:07;51.25;;;20.80;;
27533;SDS011;14973;51.460;7.008;2023-10-09T00:11:51;56.08;;;20.52;;
27533;SDS011;14973;51.460;7.008;2023-10-09T00:14:26;45.88;;;20.35;;
27533;SDS011;14973;51.460;7.008;2023-10-09T00:17:04;53.80;;;20.30;;
27533;SDS011;14973;51.460;7.008;2023-10-09T00:19:50;47.60;;;19.05;;
27533;SDS011;14973;51.460;7.008;2023-10-09T00:22:24;55.20;;;18.48;;
27533;SDS011;14973;51.460;7.008;2023-10-09T00:24:50;41.63;;;17.48;;
27533;SDS011;14973;51.460;7.008;2023-10-09T00:27:34;42.77;;;17.47;;
27533;SDS011;14973;51.460;7.008;2023-10-09T00:30:01;48.03;;;18.90;;
27533;SDS011;14973;51.460;7.008;2023-10-09T00:32:28;35.35;;;15.85;;
27533;SDS011;14973;51.460;7.008;2023-10-09T00:34:58;43.10;;;17.48;;
27533;SDS011;14973;51.460;7.008;2023-10-09T00:37:38;37.80;;;16.33;;
27533;SDS011;14973;51.460;7.008;2023-10-09T00:40:05;36.13;;;16.58;;
27533;SDS011;14973;51.460;7.008;2023-10-09T00:42:45;46.17;;;17.25;;
27533;SDS011;14973;51.460;7.008;2023-10-09T00:45:12;34.00;;;17.08;;
27533;SDS011;14973;51.460;7.008;2023-10-09T00:47:41;37.63;;;17.10;;
27533;SDS011;14973;51.460;7.008;2023-10-09T00:50:09;41.20;;;17.02;;
27533;SDS011;14973;51.460;7.008;2023-10-09T00:52:41;39.55;;;15.52;;
27533;SDS011;14973;51.460;7.008;2023-10-09T00:55:34;37.40;;;17.02;;
27533;SDS011;14973;51.460;7.008;2023-10-09T00:58:11;35.83;;;15.65;;
27533;SDS011;14973;51.460;7.008;2023-10-09T01:00:41;43.13;;;16.65;;
27533;SDS011;14973;51.460;7.008;2023-10-09T01:03:13;34.88;;;15.43;;
27533;SDS011;14973;51.460;7.008;2023-10-09T01:05:42;45.38;;;16.33;;
27533;SDS011;14973;51.460;7.008;2023-10-09T01:08:18;33.45;;;16.30;;
27533;SDS011;14973;51.460;7.008;2023-10-09T01:11:14;33.80;;;15.82;;
27533;SDS011;14973;51.460;7.008;2023-10-09T01:13:46;38.40;;;14.95;;
27533;SDS011;14973;51.460;7.008;2023-10-09T01:16:13;35.58;;;16.60;;
27533;SDS011;14973;51.460;7.008;2023-10-09T01:18:42;33.42;;;15.38;;
27533;SDS011;14973;51.460;7.008;2023-10-09T01:21:09;35.67;;;14.98;;
27533;SDS011;14973;51.460;7.008;2023-10-09T01:23:40;33.35;;;15.50;;
27533;SDS011;14973;51.460;7.008;2023-10-09T01:29:24;36.90;;;15.60;;
27533;SDS011;14973;51.460;7.008;2023-10-09T01:31:55;34.03;;;15.65;;
27533;SDS011;14973;51.460;7.008;2023-10-09T01:34:25;32.80;;;14.63;;
27533;SDS011;14973;51.460;7.008;2023-10-09T01:37:10;38.15;;;14.40;;
27533;SDS011;14973;51.460;7.008;2023-10-09T01:39:40;43.50;;;14.75;;
27533;SDS011;14973;51.460;7.008;2023-10-09T01:42:07;34.10;;;14.90;;
27533;SDS011;14973;51.460;7.008;2023-10-09T01:44:34;34.13;;;14.65;;
27533;SDS011;14973;51.460;7.008;2023-10-09T01:47:02;33.20;;;16.58;;
27533;SDS011;14973;51.460;7.008;2023-10-09T01:49:39;37.95;;;16.10;;
27533;SDS011;14973;51.460;7.008;2023-10-09T01:52:11;40.67;;;15.77;;
27533;SDS011;14973;51.460;7.008;2023-10-09T01:54:41;31.85;;;14.45;;
27533;SDS011;14973;51.460;7.008;2023-10-09T01:57:11;33.30;;;14.85;;
27533;SDS011;14973;51.460;7.008;2023-10-09T01:59:38;27.08;;;14.13;;
27533;SDS011;14973;51.460;7.008;2023-10-09T02:02:08;35.83;;;14.07;;
27533;SDS011;14973;51.460;7.008;2023-10-09T02:04:51;32.15;;;14.88;;
27533;SDS011;14973;51.460;7.008;2023-10-09T02:07:18;34.60;;;14.35;;
27533;SDS011;14973;51.460;7.008;2023-10-09T02:09:55;36.60;;;16.00;;
27533;SDS011;14973;51.460;7.008;2023-10-09T02:12:21;26.77;;;13.98;;
27533;SDS011;14973;51.460;7.008;2023-10-09T02:14:48;35.25;;;15.52;;
27533;SDS011;14973;51.460;7.008;2023-10-09T02:17:14;35.05;;;15.80;;
27533;SDS011;14973;51.460;7.008;2023-10-09T02:19:46;29.88;;;14.75;;
27533;SDS011;14973;51.460;7.008;2023-10-09T02:22:14;27.45;;;14.23;;
27533;SDS011;14973;51.460;7.008;2023-10-09T02:24:41;32.47;;;15.32;;
27533;SDS011;14973;51.460;7.008;2023-10-09T02:27:13;29.33;;;14.63;;
27533;SDS011;14973;51.460;7.008;2023-10-09T02:29:45;29.95;;;14.07;;
27533;SDS011;14973;51.460;7.008;2023-10-09T02:32:12;31.67;;;14.43;;
27533;SDS011;14973;51.460;7.008;2023-10-09T02:34:50;37.45;;;14.73;;
27533;SDS011;14973;51.460;7.008;2023-10-09T02:37:18;27.58;;;14.02;;
27533;SDS011;14973;51.460;7.008;2023-10-09T02:39:48;39.78;;;15.23;;
27533;SDS011;14973;51.460;7.008;2023-10-09T02:42:17;39.50;;;15.68;;
27533;SDS011;14973;51.460;7.008;2023-10-09T02:44:50;33.45;;;14.73;;
27533;SDS011;14973;51.460;7.008;2023-10-09T02:47:20;29.08;;;14.07;;
27533;SDS011;14973;51.460;7.008;2023-10-09T02:49:49;31.08;;;13.27;;
27533;SDS011;14973;51.460;7.008;2023-10-09T02:52:15;31.23;;;14.63;;
27533;SDS011;14973;51.460;7.008;2023-10-09T02:54:45;31.73;;;13.75;;
27533;SDS011;14973;51.460;7.008;2023-10-09T02:57:12;27.05;;;13.75;;
27533;SDS011;14973;51.460;7.008;2023-10-09T02:59:47;27.05;;;12.65;;
27533;SDS011;14973;51.460;7.008;2023-10-09T03:02:16;32.40;;;14.45;;
27533;SDS011;14973;51.460;7.008;2023-10-09T03:04:44;32.53;;;14.48;;
27533;SDS011;14973;51.460;7.008;2023-10-09T03:07:10;34.03;;;13.75;;
27533;SDS011;14973;51.460;7.008;2023-10-09T03:09:38;38.78;;;14.45;;
27533;SDS011;14973;51.460;7.008;2023-10-09T03:12:05;29.88;;;13.02;;
27533;SDS011;14973;51.460;7.008;2023-10-09T03:14:35;29.73;;;13.88;;
27533;SDS011;14973;51.460;7.008;2023-10-09T03:17:03;30.88;;;13.40;;
27533;SDS011;14973;51.460;7.008;2023-10-09T03:19:29;29.55;;;13.23;;
27533;SDS011;14973;51.460;7.008;2023-10-09T03:22:02;28.10;;;13.43;;
27533;SDS011;14973;51.460;7.008;2023-10-09T03:24:28;28.17;;;13.18;;
27533;SDS011;14973;51.460;7.008;2023-10-09T03:26:55;31.83;;;13.05;;
27533;SDS011;14973;51.460;7.008;2023-10-09T03:29:21;28.08;;;13.23;;
27533;SDS011;14973;51.460;7.008;2023-10-09T03:31:47;28.55;;;13.90;;
27533;SDS011;14973;51.460;7.008;2023-10-09T03:34:15;30.08;;;13.70;;
27533;SDS011;14973;51.460;7.008;2023-10-09T03:36:41;27.52;;;13.10;;
27533;SDS011;14973;51.460;7.008;2023-10-09T03:39:08;28.88;;;13.05;;
27533;SDS011;14973;51.460;7.008;2023-10-09T03:41:50;29.80;;;13.15;;
27533;SDS011;14973;51.460;7.008;2023-10-09T03:44:16;23.52;;;12.13;;
27533;SDS011;14973;51.460;7.008;2023-10-09T03:46:44;27.70;;;13.43;;
27533;SDS011;14973;51.460;7.008;2023-10-09T03:49:10;29.20;;;13.20;;
27533;SDS011;14973;51.460;7.008;2023-10-09T03:51:37;29.67;;;12.35;;
27533;SDS011;14973;51.460;7.008;2023-10-09T03:54:04;29.20;;;12.50;;
27533;SDS011;14973;51.460;7.008;2023-10-09T03:56:34;24.73;;;11.82;;
27533;SDS011;14973;51.460;7.008;2023-10-09T03:59:00;28.33;;;12.02;;
27533;SDS011;14973;51.460;7.008;2023-10-09T04:01:30;26.88;;;11.75;;
27533;SDS011;14973;51.460;7.008;2023-10-09T04:04:03;30.60;;;12.38;;
27533;SDS011;14973;51.460;7.008;2023-10-09T04:06:31;24.65;;;12.18;;
27533;SDS011;14973;51.460;7.008;2023-10-09T04:08:58;26.35;;;12.27;;
27533;SDS011;14973;51.460;7.008;2023-10-09T04:11:25;26.55;;;11.80;;
27533;SDS011;14973;51.460;7.008;2023-10-09T04:13:51;23.58;;;12.43;;
27533;SDS011;14973;51.460;7.008;2023-10-09T04:16:20;24.73;;;12.07;;
27533;SDS011;14973;51.460;7.008;2023-10-09T04:18:55;31.52;;;13.77;;
27533;SDS011;14973;51.460;7.008;2023-10-09T04:21:21;36.72;;;13.23;;
27533;SDS011;14973;51.460;7.008;2023-10-09T04:23:59;30.40;;;13.02;;
27533;SDS011;14973;51.460;7.008;2023-10-09T04:26:47;31.58;;;12.40;;
27533;SDS011;14973;51.460;7.008;2023-10-09T04:29:14;28.33;;;11.65;;
27533;SDS011;14973;51.460;7.008;2023-10-09T04:31:51;27.90;;;11.98;;
27533;SDS011;14973;51.460;7.008;2023-10-09T04:34:24;27.00;;;11.73;;
27533;SDS011;14973;51.460;7.008;2023-10-09T04:36:52;23.63;;;12.07;;
27533;SDS011;14973;51.460;7.008;2023-10-09T04:39:38;26.90;;;11.95;;
27533;SDS011;14973;51.460;7.008;2023-10-09T04:42:11;24.48;;;11.20;;
27533;SDS011;14973;51.460;7.008;2023-10-09T04:45:01;25.40;;;11.48;;
27533;SDS011;14973;51.460;7.008;2023-10-09T04:47:28;27.17;;;11.82;;
27533;SDS011;14973;51.460;7.008;2023-10-09T04:50:04;25.50;;;12.35;;
27533;SDS011;14973;51.460;7.008;2023-10-09T04:52:48;28.30;;;12.25;;
27533;SDS011;14973;51.460;7.008;2023-10-09T04:55:17;25.70;;;12.40;;
27533;SDS011;14973;51.460;7.008;2023-10-09T04:57:49;22.58;;;11.55;;
27533;SDS011;14973;51.460;7.008;2023-10-09T05:00:42;23.95;;;11.45;;
27533;SDS011;14973;51.460;7.008;2023-10-09T05:03:07;25.23;;;11.80;;
27533;SDS011;14973;51.460;7.008;2023-10-09T05:05:52;27.83;;;12.27;;
27533;SDS011;14973;51.460;7.008;2023-10-09T05:08:24;27.10;;;12.15;;
27533;SDS011;14973;51.460;7.008;2023-10-09T05:10:54;24.45;;;12.07;;
27533;SDS011;14973;51.460;7.008;2023-10-09T05:13:27;21.80;;;11.90;;
27533;SDS011;14973;51.460;7.008;2023-10-09T05:16:17;22.67;;;11.88;;
27533;SDS011;14973;51.460;7.008;2023-10-09T05:18:43;24.98;;;12.13;;
27533;SDS011;14973;51.460;7.008;2023-10-09T05:21:22;29.73;;;11.73;;
27533;SDS011;14973;51.460;7.008;2023-10-09T05:23:57;26.73;;;11.82;;
27533;SDS011;14973;51.460;7.008;2023-10-09T05:26:45;27.30;;;12.13;;
27533;SDS011;14973;51.460;7.008;2023-10-09T05:29:14;27.27;;;11.95;;
27533;SDS011;14973;51.460;7.008;2023-10-09T05:31:54;27.55;;;11.95;;
27533;SDS011;14973;51.460;7.008;2023-10-09T05:34:43;23.00;;;12.25;;
27533;SDS011;14973;51.460;7.008;2023-10-09T05:37:28;23.95;;;12.35;;
27533;SDS011;14973;51.460;7.008;2023-10-09T05:39:58;27.45;;;12.32;;
27533;SDS011;14973;51.460;7.008;2023-10-09T05:42:26;30.05;;;11.77;;
27533;SDS011;14973;51.460;7.008;2023-10-09T05:45:08;30.48;;;12.80;;
27533;SDS011;14973;51.460;7.008;2023-10-09T05:47:47;36.70;;;13.27;;
27533;SDS011;14973;51.460;7.008;2023-10-09T05:50:25;35.83;;;14.40;;
27533;SDS011;14973;51.460;7.008;2023-10-09T05:52:51;28.08;;;13.75;;
27533;SDS011;14973;51.460;7.008;2023-10-09T05:55:21;27.00;;;12.32;;
27533;SDS011;14973;51.460;7.008;2023-10-09T05:58:06;22.63;;;12.38;;
27533;SDS011;14973;51.460;7.008;2023-10-09T06:00:32;32.33;;;12.65;;
27533;SDS011;14973;51.460;7.008;2023-10-09T06:03:16;20.70;;;12.00;;
27533;SDS011;14973;51.460;7.008;2023-10-09T06:05:45;26.15;;;12.25;;
27533;SDS011;14973;51.460;7.008;2023-10-09T06:08:27;26.77;;;12.15;;
27533;SDS011;14973;51.460;7.008;2023-10-09T06:11:15;27.08;;;12.30;;
27533;SDS011;14973;51.460;7.008;2023-10-09T06:13:59;25.17;;;12.82;;
27533;SDS011;14973;51.460;7.008;2023-10-09T06:19:04;23.40;;;12.80;;
27533;SDS011;14973;51.460;7.008;2023-10-09T06:21:36;19.77;;;11.60;;
27533;SDS011;14973;51.460;7.008;2023-10-09T06:24:24;25.20;;;11.88;;
27533;SDS011;14973;51.460;7.008;2023-10-09T06:27:06;23.33;;;11.95;;
27533;SDS011;14973;51.460;7.008;2023-10-09T06:29:32;27.88;;;12.45;;
27533;SDS011;14973;51.460;7.008;2023-10-09T06:32:04;27.25;;;12.98;;
27533;SDS011;14973;51.460;7.008;2023-10-09T06:34:46;34.67;;;13.30;;
27533;SDS011;14973;51.460;7.008;2023-10-09T06:37:22;31.90;;;13.32;;
27533;SDS011;14973;51.460;7.008;2023-10-09T06:39:49;25.40;;;13.07;;
27533;SDS011;14973;51.460;7.008;2023-10-09T06:42:15;25.70;;;12.32;;
27533;SDS011;14973;51.460;7.008;2023-10-09T06:45:02;32.65;;;13.82;;
27533;SDS011;14973;51.460;7.008;2023-10-09T06:47:31;29.70;;;13.60;;
27533;SDS011;14973;51.460;7.008;2023-10-09T06:50:06;27.52;;;12.77;;
27533;SDS011;14973;51.460;7.008;2023-10-09T06:52:50;25.83;;;12.02;;
27533;SDS011;14973;51.460;7.008;2023-10-09T06:55:26;22.13;;;12.05;;
27533;SDS011;14973;51.460;7.008;2023-10-09T06:58:13;28.83;;;13.45;;
27533;SDS011;14973;51.460;7.008;2023-10-09T07:00:52;26.35;;;12.48;;
27533;SDS011;14973;51.460;7.008;2023-10-09T07:03:37;30.48;;;14.30;;
27533;SDS011;14973;51.460;7.008;2023-10-09T07:06:17;43.17;;;15.35;;
27533;SDS011;14973;51.460;7.008;2023-10-09T07:08:55;31.52;;;14.93;;
27533;SDS011;14973;51.460;7.008;2023-10-09T07:11:32;29.85;;;13.57;;
27533;SDS011;14973;51.460;7.008;2023-10-09T07:14:11;32.25;;;13.38;;
27533;SDS011;14973;51.460;7.008;2023-10-09T07:17:10;30.23;;;14.00;;
27533;SDS011;14973;51.460;7.008;2023-10-09T07:19:47;35.22;;;14.18;;
27533;SDS011;14973;51.460;7.008;2023-10-09T07:22:13;33.42;;;15.32;;
27533;SDS011;14973;51.460;7.008;2023-10-09T07:24:52;34.88;;;14.65;;
27533;SDS011;14973;51.460;7.008;2023-10-09T07:27:24;30.05;;;14.73;;
27533;SDS011;14973;51.460;7.008;2023-10-09T07:30:09;29.35;;;14.00;;
27533;SDS011;14973;51.460;7.008;2023-10-09T07:32:58;33.70;;;14.98;;
27533;SDS011;14973;51.460;7.008;2023-10-09T07:35:38;26.25;;;13.80;;
27533;SDS011;14973;51.460;7.008;2023-10-09T07:38:07;37.10;;;13.57;;
27533;SDS011;14973;51.460;7.008;2023-10-09T07:40:39;34.92;;;14.00;;
27533;SDS011;14973;51.460;7.008;2023-10-09T07:43:31;26.45;;;13.57;;
27533;SDS011;14973;51.460;7.008;2023-10-09T07:46:04;30.77;;;14.02;;
27533;SDS011;14973;51.460;7.008;2023-10-09T07:48:56;28.02;;;14.38;;
27533;SDS011;14973;51.460;7.008;2023-10-09T07:51:23;30.15;;;13.48;;
27533;SDS011;14973;51.460;7.008;2023-10-09T07:53:56;37.47;;;15.50;;
27533;SDS011;14973;51.460;7.008;2023-10-09T07:56:25;28.60;;;13.40;;
27533;SDS011;14973;51.460;7.008;2023-10-09T07:58:55;24.92;;;13.65;;
27533;SDS011;14973;51.460;7.008;2023-10-09T08:01:25;31.02;;;13.77;;
27533;SDS011;14973;51.460;7.008;2023-10-09T08:03:53;29.95;;;13.35;;
27533;SDS011;14973;51.460;7.008;2023-10-09T08:06:23;32.60;;;13.10;;
27533;SDS011;14973;51.460;7.008;2023-10-09T08:09:08;28.85;;;14.15;;
27533;SDS011;14973;51.460;7.008;2023-10-09T08:14:12;30.65;;;13.15;;
27533;SDS011;14973;51.460;7.008;2023-10-09T08:17:14;30.63;;;12.93;;
27533;SDS011;14973;51.460;7.008;2023-10-09T08:19:49;29.73;;;13.77;;
27533;SDS011;14973;51.460;7.008;2023-10-09T08:22:22;29.08;;;13.35;;
27533;SDS011;14973;51.460;7.008;2023-10-09T08:24:49;26.23;;;13.45;;
27533;SDS011;14973;51.460;7.008;2023-10-09T08:27:21;21.63;;;12.05;;
27533;SDS011;14973;51.460;7.008;2023-10-09T08:29:59;26.10;;;13.15;;
27533;SDS011;14973;51.460;7.008;2023-10-09T08:32:46;28.10;;;12.88;;
27533;SDS011;14973;51.460;7.008;2023-10-09T08:38:13;26.15;;;12.40;;
27533;SDS011;14973;51.460;7.008;2023-10-09T08:40:42;34.10;;;14.15;;
27533;SDS011;14973;51.460;7.008;2023-10-09T08:45:47;29.45;;;14.25;;
27533;SDS011;14973;51.460;7.008;2023-10-09T08:48:14;37.22;;;16.90;;
27533;SDS011;14973;51.460;7.008;2023-10-09T08:50:47;34.22;;;14.18;;
27533;SDS011;14973;51.460;7.008;2023-10-09T08:53:19;32.50;;;15.52;;
27533;SDS011;14973;51.460;7.008;2023-10-09T08:55:45;26.38;;;13.45;;
27533;SDS011;14973;51.460;7.008;2023-10-09T08:58:11;27.52;;;14.98;;
27533;SDS011;14973;51.460;7.008;2023-10-09T09:00:45;31.75;;;15.30;;
27533;SDS011;14973;51.460;7.008;2023-10-09T09:03:13;31.20;;;14.90;;
27533;SDS011;14973;51.460;7.008;2023-10-09T09:05:46;33.72;;;14.88;;
27533;SDS011;14973;51.460;7.008;2023-10-09T09:08:21;31.75;;;14.55;;
27533;SDS011;14973;51.460;7.008;2023-10-09T09:11:12;27.77;;;13.50;;
27533;SDS011;14973;51.460;7.008;2023-10-09T09:13:43;31.20;;;14.40;;
27533;SDS011;14973;51.460;7.008;2023-10-09T09:16:32;29.17;;;13.45;;
27533;SDS011;14973;51.460;7.008;2023-10-09T09:19:06;26.35;;;12.73;;
27533;SDS011;14973;51.460;7.008;2023-10-09T09:21:36;26.92;;;13.38;;
27533;SDS011;14973;51.460;7.008;2023-10-09T09:24:06;33.67;;;13.30;;
27533;SDS011;14973;51.460;7.008;2023-10-09T09:26:52;27.98;;;13.50;;
27533;SDS011;14973;51.460;7.008;2023-10-09T09:29:25;32.40;;;15.10;;
27533;SDS011;14973;51.460;7.008;2023-10-09T09:32:04;25.13;;;12.48;;
27533;SDS011;14973;51.460;7.008;2023-10-09T09:34:46;33.03;;;13.25;;
27533;SDS011;14973;51.460;7.008;2023-10-09T09:37:23;26.45;;;12.27;;
27533;SDS011;14973;51.460;7.008;2023-10-09T09:39:58;24.50;;;12.20;;
27533;SDS011;14973;51.460;7.008;2023-10-09T09:42:39;28.40;;;12.95;;
27533;SDS011;14973;51.460;7.008;2023-10-09T09:45:10;25.17;;;12.15;;
27533;SDS011;14973;51.460;7.008;2023-10-09T09:47:36;27.85;;;12.93;;
27533;SDS011;14973;51.460;7.008;2023-10-09T09:50:02;21.98;;;11.63;;
27533;SDS011;14973;51.460;7.008;2023-10-09T09:52:37;27.00;;;12.63;;
27533;SDS011;14973;51.460;7.008;2023-10-09T09:55:07;25.88;;;11.38;;
27533;SDS011;14973;51.460;7.008;2023-10-09T09:57:40;23.48;;;11.80;;
27533;SDS011;14973;51.460;7.008;2023-10-09T10:00:06;33.45;;;13.25;;
27533;SDS011;14973;51.460;7.008;2023-10-09T10:02:52;26.63;;;13.80;;
27533;SDS011;14973;51.460;7.008;2023-10-09T10:05:22;22.58;;;11.55;;
27533;SDS011;14973;51.460;7.008;2023-10-09T10:07:54;25.20;;;11.70;;
27533;SDS011;14973;51.460;7.008;2023-10-09T10:10:38;18.80;;;10.35;;
27533;SDS011;14973;51.460;7.008;2023-10-09T10:13:12;21.63;;;11.20;;
27533;SDS011;14973;51.460;7.008;2023-10-09T10:18:21;21.88;;;10.73;;
27533;SDS011;14973;51.460;7.008;2023-10-09T10:24:40;27.50;;;12.25;;
27533;SDS011;14973;51.460;7.008;2023-10-09T10:30:12;29.30;;;13.50;;
27533;SDS011;14973;51.460;7.008;2023-10-09T10:32:54;32.47;;;12.85;;
27533;SDS011;14973;51.460;7.008;2023-10-09T10:35:22;32.22;;;12.07;;
27533;SDS011;14973;51.460;7.008;2023-10-09T10:40:49;28.88;;;11.98;;
27533;SDS011;14973;51.460;7.008;2023-10-09T10:43:22;25.50;;;11.75;;
27533;SDS011;14973;51.460;7.008;2023-10-09T10:46:04;25.65;;;12.20;;
27533;SDS011;14973;51.460;7.008;2023-10-09T10:48:38;27.13;;;12.07;;
27533;SDS011;14973;51.460;7.008;2023-10-09T10:51:04;25.38;;;11.57;;
27533;SDS011;14973;51.460;7.008;2023-10-09T10:53:31;24.42;;;11.38;;
27533;SDS011;14973;51.460;7.008;2023-10-09T10:56:14;30.80;;;10.98;;
27533;SDS011;14973;51.460;7.008;2023-10-09T10:58:40;23.45;;;11.10;;
27533;SDS011;14973;51.460;7.008;2023-10-09T11:01:29;25.73;;;12.50;;
27533;SDS011;14973;51.460;7.008;2023-10-09T11:04:17;30.80;;;10.90;;
27533;SDS011;14973;51.460;7.008;2023-10-09T11:07:05;27.17;;;11.88;;
27533;SDS011;14973;51.460;7.008;2023-10-09T11:09:50;29.17;;;12.25;;
27533;SDS011;14973;51.460;7.008;2023-10-09T11:15:30;25.48;;;10.65;;
27533;SDS011;14973;51.460;7.008;2023-10-09T11:18:13;31.42;;;12.30;;
27533;SDS011;14973;51.460;7.008;2023-10-09T11:20:49;24.20;;;12.43;;
27533;SDS011;14973;51.460;7.008;2023-10-09T11:23:29;33.25;;;12.63;;
27533;SDS011;14973;51.460;7.008;2023-10-09T11:25:58;24.20;;;11.95;;
27533;SDS011;14973;51.460;7.008;2023-10-09T11:28:44;26.58;;;11.20;;
27533;SDS011;14973;51.460;7.008;2023-10-09T11:31:30;27.30;;;11.25;;
27533;SDS011;14973;51.460;7.008;2023-10-09T11:33:59;30.50;;;12.45;;
27533;SDS011;14973;51.460;7.008;2023-10-09T11:36:26;23.67;;;12.98;;
27533;SDS011;14973;51.460;7.008;2023-10-09T11:38:58;31.55;;;11.98;;
27533;SDS011;14973;51.460;7.008;2023-10-09T11:44:09;31.33;;;12.32;;
27533;SDS011;14973;51.460;7.008;2023-10-09T11:47:02;27.60;;;12.02;;
27533;SDS011;14973;51.460;7.008;2023-10-09T11:49:53;29.27;;;12.50;;
27533;SDS011;14973;51.460;7.008;2023-10-09T11:52:31;28.10;;;12.73;;
27533;SDS011;14973;51.460;7.008;2023-10-09T11:55:04;27.88;;;13.50;;
27533;SDS011;14973;51.460;7.008;2023-10-09T11:57:39;31.92;;;12.23;;
27533;SDS011;14973;51.460;7.008;2023-10-09T12:00:05;24.55;;;12.52;;
27533;SDS011;14973;51.460;7.008;2023-10-09T12:02:52;22.98;;;12.02;;
27533;SDS011;14973;51.460;7.008;2023-10-09T12:05:17;28.33;;;13.02;;
27533;SDS011;14973;51.460;7.008;2023-10-09T12:07:46;32.15;;;12.75;;
27533;SDS011;14973;51.460;7.008;2023-10-09T12:10:19;25.50;;;11.88;;
27533;SDS011;14973;51.460;7.008;2023-10-09T12:12:50;25.88;;;11.10;;
27533;SDS011;14973;51.460;7.008;2023-10-09T12:15:16;25.83;;;12.00;;
27533;SDS011;14973;51.460;7.008;2023-10-09T12:17:45;30.45;;;13.10;;
27533;SDS011;14973;51.460;7.008;2023-10-09T12:20:15;33.22;;;16.60;;
27533;SDS011;14973;51.460;7.008;2023-10-09T12:23:01;25.58;;;12.30;;
27533;SDS011;14973;51.460;7.008;2023-10-09T12:25:30;31.02;;;13.45;;
27533;SDS011;14973;51.460;7.008;2023-10-09T12:27:57;32.90;;;14.35;;
27533;SDS011;14973;51.460;7.008;2023-10-09T12:30:26;34.17;;;12.98;;
27533;SDS011;14973;51.460;7.008;2023-10-09T12:32:54;29.83;;;13.18;;
27533;SDS011;14973;51.460;7.008;2023-10-09T12:35:22;23.58;;;12.35;;
27533;SDS011;14973;51.460;7.008;2023-10-09T12:37:48;23.95;;;11.93;;
27533;SDS011;14973;51.460;7.008;2023-10-09T12:40:14;35.00;;;13.20;;
27533;SDS011;14973;51.460;7.008;2023-10-09T12:42:48;29.35;;;12.73;;
27533;SDS011;14973;51.460;7.008;2023-10-09T12:45:17;34.35;;;14.02;;
27533;SDS011;14973;51.460;7.008;2023-10-09T12:47:45;27.98;;;12.85;;
27533;SDS011;14973;51.460;7.008;2023-10-09T12:50:12;29.92;;;13.82;;
27533;SDS011;14973;51.460;7.008;2023-10-09T12:52:39;33.92;;;13.23;;
27533;SDS011;14973;51.460;7.008;2023-10-09T12:55:05;28.55;;;13.40;;
27533;SDS011;14973;51.460;7.008;2023-10-09T12:57:33;30.65;;;13.85;;
27533;SDS011;14973;51.460;7.008;2023-10-09T12:59:59;43.17;;;25.90;;
27533;SDS011;14973;51.460;7.008;2023-10-09T13:02:24;37.08;;;16.98;;
27533;SDS011;14973;51.460;7.008;2023-10-09T13:04:58;35.72;;;14.02;;
27533;SDS011;14973;51.460;7.008;2023-10-09T13:07:29;32.25;;;14.80;;
27533;SDS011;14973;51.460;7.008;2023-10-09T13:09:55;27.52;;;14.18;;
27533;SDS011;14973;51.460;7.008;2023-10-09T13:12:38;30.38;;;14.82;;
27533;SDS011;14973;51.460;7.008;2023-10-09T13:15:07;27.77;;;13.35;;
27533;SDS011;14973;51.460;7.008;2023-10-09T13:17:37;33.78;;;14.88;;
27533;SDS011;14973;51.460;7.008;2023-10-09T13:20:04;36.55;;;14.65;;
27533;SDS011;14973;51.460;7.008;2023-10-09T13:22:39;33.85;;;13.90;;
27533;SDS011;14973;51.460;7.008;2023-10-09T13:25:09;29.83;;;13.20;;
27533;SDS011;14973;51.460;7.008;2023-10-09T13:27:43;33.63;;;13.90;;
27533;SDS011;14973;51.460;7.008;2023-10-09T13:30:16;29.35;;;14.20;;
27533;SDS011;14973;51.460;7.008;2023-10-09T13:32:48;35.08;;;14.63;;
27533;SDS011;14973;51.460;7.008;2023-10-09T13:35:17;28.45;;;13.00;;
27533;SDS011;14973;51.460;7.008;2023-10-09T13:37:44;36.33;;;14.70;;
27533;SDS011;14973;51.460;7.008;2023-10-09T13:40:18;32.45;;;13.82;;
27533;SDS011;14973;51.460;7.008;2023-10-09T13:42:52;36.72;;;14.93;;
27533;SDS011;14973;51.460;7.008;2023-10-09T13:45:23;26.83;;;13.05;;
27533;SDS011;14973;51.460;7.008;2023-10-09T13:47:53;30.27;;;13.65;;
27533;SDS011;14973;51.460;7.008;2023-10-09T13:50:20;33.53;;;15.27;;
27533;SDS011;14973;51.460;7.008;2023-10-09T13:52:48;29.88;;;14.80;;
27533;SDS011;14973;51.460;7.008;2023-10-09T13:55:13;30.17;;;14.68;;
27533;SDS011;14973;51.460;7.008;2023-10-09T13:57:42;34.05;;;15.68;;
27533;SDS011;14973;51.460;7.008;2023-10-09T14:00:19;36.35;;;16.10;;
27533;SDS011;14973;51.460;7.008;2023-10-09T14:02:59;34.25;;;15.93;;
27533;SDS011;14973;51.460;7.008;2023-10-09T14:05:36;38.15;;;18.00;;
27533;SDS011;14973;51.460;7.008;2023-10-09T14:08:16;39.20;;;15.80;;
27533;SDS011;14973;51.460;7.008;2023-10-09T14:10:43;35.80;;;16.27;;
27533;SDS011;14973;51.460;7.008;2023-10-09T14:13:13;36.08;;;16.48;;
27533;SDS011;14973;51.460;7.008;2023-10-09T14:15:39;30.95;;;16.80;;
27533;SDS011;14973;51.460;7.008;2023-10-09T14:18:06;34.63;;;17.25;;
27533;SDS011;14973;51.460;7.008;2023-10-09T14:20:34;30.35;;;15.75;;
27533;SDS011;14973;51.460;7.008;2023-10-09T14:23:00;34.95;;;16.40;;
27533;SDS011;14973;51.460;7.008;2023-10-09T14:25:32;31.13;;;16.20;;
27533;SDS011;14973;51.460;7.008;2023-10-09T14:28:02;35.25;;;16.48;;
27533;SDS011;14973;51.460;7.008;2023-10-09T14:30:32;39.30;;;16.38;;
27533;SDS011;14973;51.460;7.008;2023-10-09T14:33:10;40.80;;;15.85;;
27533;SDS011;14973;51.460;7.008;2023-10-09T14:35:41;32.00;;;16.27;;
27533;SDS011;14973;51.460;7.008;2023-10-09T14:38:09;36.00;;;17.05;;
27533;SDS011;14973;51.460;7.008;2023-10-09T14:40:43;41.45;;;17.40;;
27533;SDS011;14973;51.460;7.008;2023-10-09T14:43:10;40.78;;;17.13;;
27533;SDS011;14973;51.460;7.008;2023-10-09T14:45:45;39.72;;;17.60;;
27533;SDS011;14973;51.460;7.008;2023-10-09T14:48:13;36.45;;;17.27;;
27533;SDS011;14973;51.460;7.008;2023-10-09T14:50:47;32.95;;;17.73;;
27533;SDS011;14973;51.460;7.008;2023-10-09T14:53:13;42.13;;;17.70;;
27533;SDS011;14973;51.460;7.008;2023-10-09T14:55:40;37.35;;;16.90;;
27533;SDS011;14973;51.460;7.008;2023-10-09T14:58:09;34.97;;;18.05;;
27533;SDS011;14973;51.460;7.008;2023-10-09T15:00:36;34.97;;;15.35;;
27533;SDS011;14973;51.460;7.008;2023-10-09T15:03:01;45.08;;;17.02;;
27533;SDS011;14973;51.460;7.008;2023-10-09T15:05:28;32.40;;;17.23;;
27533;SDS011;14973;51.460;7.008;2023-10-09T15:07:56;34.50;;;17.20;;
27533;SDS011;14973;51.460;7.008;2023-10-09T15:10:22;38.03;;;17.73;;
27533;SDS011;14973;51.460;7.008;2023-10-09T15:12:49;47.78;;;18.38;;
27533;SDS011;14973;51.460;7.008;2023-10-09T15:15:15;40.75;;;19.40;;
27533;SDS011;14973;51.460;7.008;2023-10-09T15:17:41;40.28;;;18.33;;
27533;SDS011;14973;51.460;7.008;2023-10-09T15:20:23;38.22;;;18.35;;
27533;SDS011;14973;51.460;7.008;2023-10-09T15:22:49;38.40;;;18.13;;
27533;SDS011;14973;51.460;7.008;2023-10-09T15:25:15;41.90;;;18.45;;
27533;SDS011;14973;51.460;7.008;2023-10-09T15:27:42;42.20;;;18.20;;